Pagina principale
METAR-TAF:

METAR-TAF

Aeroporti :

Jijel, Algeria

latitudine: 36-53N, longitudine: 005-49E, altezza: 2 m

Osservazione

Il bollettino è stato emesso 1 ora e 5 minuti fa, alle 15:00 UTC
Vento 9 kt da nord-ovest
Temperature 33°C
Umidità 34%
Pressione 1012 hPa
Visibilità 10 km o più
Poco nuvoloso ad un'altezza di 2300 ft

METAR: DAAV 131500Z 32009KT 9999 FEW023 33/15 Q1012

Ora: 17:05 (16:05 UTC)

Previsione

Il bollettino è stato emesso 5 ore e 5 minuti fa, alle 11:00 UTC
Previsione valida dal 13 alle 12 UTC al 14 alle 12 UTC
Vento 8 kt da nord/nord-ovest
Visibilità 10 km o più
nessuna nube inferiore a 1500 m e nessun cumulonembo
Probabilità 30% :
Temporaneamente
dal 13 alle 14 UTC al 13 alle 18 UTC
Vento 12 kt da ovest

TAF: DAAV 131100Z 1312/1412 33008KT CAVOK PROB30 TEMPO 1314/1318 27012KT

Osservazioni e previsioni meteorologiche di più di 4000 aeroporti (messaggi METAR e TAF).

Le stazioni disponibili sono rappresentate dai dischi gialli e rossi sulla carta.

Puntare il mouse per vedere il nome della stazione.

Clicca sopra per visualizzare le osservazioni e previsioni meteorologiche.

Per cambiare la mappa : fare clic sui pulsanti verdi con una croce nera per ingrandire, il pulsante verde con un trattino per diminuire, o sulla freccia verde per le mappe adiacenti.


METAR-TAF: